ETH802 YSSY-HAAB
Flight info
| Callsign | ETH802 |
|---|---|
| Flight time | N/A |
| Altitude | 34000 |
| Route | KADOM Q401 UVUPU J21 ISLAV N640 LM/N0499F360 T41 RISMI/N0492F380 T41 SABEK DCT 034151N0611917E/N0481F400 DCT ESRAB DCT 081247N0510403E DCT DAROT UT382 HARGA DCT ARSHI ARSHI1A |
| Aircraft | A359/H-SDE2E3GHIJ3J4J5LM1ORWXY/LB1D1 |
Departure
| Time | N/A |
|---|---|
| Airport | Sydney Kingsford Smith International Airport (YSSY) |
Arrival
| Time | 2026-04-28 09:26 |
|---|---|
| Airport | Addis Ababa Bole International Airport (HAAB) |
| Time | Latitude | Longitude | Altitude | Speed | Heading |
|---|---|---|---|---|---|
| 2026-04-28 06:07 | -1.93698 | 77.30993 | 37876 ft | 498 kts | 290° |
| 2026-04-28 06:08 | -1.91395 | 77.24453 | 37884 ft | 497 kts | 290° |
| 2026-04-28 06:08 | -1.89097 | 77.17931 | 37872 ft | 497 kts | 290° |
| 2026-04-28 06:09 | -1.86804 | 77.11425 | 37879 ft | 497 kts | 290° |
| 2026-04-28 06:09 | -1.84510 | 77.04914 | 37890 ft | 496 kts | 290° |
| 2026-04-28 06:10 | -1.82217 | 76.98411 | 37869 ft | 496 kts | 290° |
| 2026-04-28 06:10 | -1.79921 | 76.91899 | 37890 ft | 496 kts | 290° |
| 2026-04-28 06:11 | -1.77630 | 76.85400 | 37889 ft | 496 kts | 290° |
| 2026-04-28 06:11 | -1.75334 | 76.78887 | 37876 ft | 496 kts | 290° |
| 2026-04-28 06:12 | -1.73054 | 76.72422 | 37878 ft | 497 kts | 290° |
| 2026-04-28 06:12 | -1.70760 | 76.65918 | 37891 ft | 497 kts | 290° |
| 2026-04-28 06:13 | -1.68464 | 76.59409 | 37875 ft | 497 kts | 290° |
| 2026-04-28 06:13 | -1.66160 | 76.52876 | 37871 ft | 498 kts | 290° |
| 2026-04-28 06:14 | -1.63853 | 76.46335 | 37886 ft | 499 kts | 290° |
| 2026-04-28 06:14 | -1.61546 | 76.39798 | 37884 ft | 499 kts | 290° |
| 2026-04-28 06:15 | -1.59236 | 76.33251 | 37872 ft | 500 kts | 290° |
| 2026-04-28 06:15 | -1.56920 | 76.26689 | 37870 ft | 501 kts | 290° |
| 2026-04-28 06:16 | -1.54614 | 76.20155 | 37889 ft | 501 kts | 290° |
| 2026-04-28 06:16 | -1.52295 | 76.13584 | 37882 ft | 501 kts | 290° |
| 2026-04-28 06:17 | -1.49976 | 76.07017 | 37870 ft | 501 kts | 290° |
| 2026-04-28 06:18 | -1.46494 | 75.97155 | 37871 ft | 501 kts | 290° |
| 2026-04-28 06:18 | -1.44174 | 75.90585 | 37868 ft | 501 kts | 290° |
| 2026-04-28 06:19 | -1.41855 | 75.84015 | 37869 ft | 501 kts | 290° |
| 2026-04-28 06:19 | -1.39532 | 75.77440 | 37883 ft | 502 kts | 290° |
| 2026-04-28 06:20 | -1.37209 | 75.70864 | 37880 ft | 502 kts | 290° |
| 2026-04-28 06:20 | -1.35084 | 75.64851 | 37868 ft | 502 kts | 290° |
| 2026-04-28 06:21 | -1.32758 | 75.58266 | 37883 ft | 502 kts | 290° |
| 2026-04-28 06:21 | -1.30433 | 75.51685 | 37865 ft | 503 kts | 290° |
| 2026-04-28 06:22 | -1.28105 | 75.45097 | 37875 ft | 503 kts | 290° |
| 2026-04-28 06:22 | -1.25773 | 75.38500 | 37880 ft | 503 kts | 290° |
| 2026-04-28 06:23 | -1.23442 | 75.31904 | 37866 ft | 503 kts | 290° |
| 2026-04-28 06:23 | -1.21116 | 75.25322 | 37881 ft | 502 kts | 290° |
| 2026-04-28 06:24 | -1.18792 | 75.18749 | 37886 ft | 502 kts | 290° |
| 2026-04-28 06:24 | -1.16470 | 75.12178 | 37884 ft | 501 kts | 290° |
| 2026-04-28 06:25 | -1.14160 | 75.05646 | 37868 ft | 501 kts | 290° |
| 2026-04-28 06:25 | -1.11826 | 74.99044 | 37884 ft | 501 kts | 290° |
| 2026-04-28 06:26 | -1.09518 | 74.92515 | 37885 ft | 501 kts | 290° |
| 2026-04-28 06:26 | -1.07196 | 74.85949 | 37868 ft | 501 kts | 290° |
| 2026-04-28 06:27 | -1.04876 | 74.79391 | 37884 ft | 501 kts | 290° |
| 2026-04-28 06:27 | -1.02555 | 74.72830 | 37886 ft | 501 kts | 290° |
| 2026-04-28 06:28 | -1.00235 | 74.66269 | 37869 ft | 501 kts | 290° |
| 2026-04-28 06:28 | -0.97911 | 74.59701 | 37867 ft | 501 kts | 290° |
| 2026-04-28 06:29 | -0.95589 | 74.53135 | 37881 ft | 501 kts | 290° |
| 2026-04-28 06:29 | -0.93266 | 74.46570 | 37882 ft | 501 kts | 290° |
| 2026-04-28 06:30 | -0.90942 | 74.40002 | 37863 ft | 501 kts | 290° |
| 2026-04-28 06:30 | -0.88633 | 74.33477 | 37888 ft | 501 kts | 290° |
| 2026-04-28 06:31 | -0.86307 | 74.26904 | 37886 ft | 501 kts | 290° |
| 2026-04-28 06:31 | -0.83985 | 74.20341 | 37869 ft | 501 kts | 290° |
| 2026-04-28 06:32 | -0.81663 | 74.13782 | 37885 ft | 501 kts | 290° |
| 2026-04-28 06:32 | -0.79337 | 74.07211 | 37880 ft | 501 kts | 290° |
| 2026-04-28 06:33 | -0.77012 | 74.00640 | 37866 ft | 501 kts | 290° |
| 2026-04-28 06:33 | -0.74689 | 73.94079 | 37886 ft | 502 kts | 290° |
| 2026-04-28 06:34 | -0.72359 | 73.87497 | 37887 ft | 502 kts | 290° |
| 2026-04-28 06:34 | -0.70032 | 73.80922 | 37867 ft | 502 kts | 290° |
| 2026-04-28 06:35 | -0.67707 | 73.74356 | 37878 ft | 502 kts | 290° |
| 2026-04-28 06:35 | -0.65392 | 73.67816 | 37881 ft | 502 kts | 290° |
| 2026-04-28 06:36 | -0.63064 | 73.61239 | 37878 ft | 502 kts | 289° |
| 2026-04-28 06:36 | -0.60740 | 73.54677 | 37871 ft | 502 kts | 289° |
| 2026-04-28 06:37 | -0.58414 | 73.48107 | 37881 ft | 502 kts | 289° |
| 2026-04-28 06:37 | -0.56086 | 73.41533 | 37873 ft | 502 kts | 289° |
| 2026-04-28 06:38 | -0.53757 | 73.34955 | 37876 ft | 502 kts | 289° |
| 2026-04-28 06:38 | -0.51434 | 73.28394 | 37885 ft | 502 kts | 289° |
| 2026-04-28 06:39 | -0.49104 | 73.21814 | 37881 ft | 502 kts | 289° |
| 2026-04-28 06:39 | -0.46777 | 73.15243 | 37881 ft | 502 kts | 289° |
| 2026-04-28 06:40 | -0.44842 | 73.09779 | 37875 ft | 502 kts | 289° |
| 2026-04-28 06:40 | -0.42515 | 73.03208 | 37876 ft | 502 kts | 289° |
| 2026-04-28 06:41 | -0.40186 | 72.96631 | 37880 ft | 502 kts | 289° |
| 2026-04-28 06:41 | -0.37860 | 72.90064 | 37875 ft | 501 kts | 289° |
| 2026-04-28 06:42 | -0.35536 | 72.83503 | 37879 ft | 500 kts | 289° |
| 2026-04-28 06:42 | -0.33216 | 72.76953 | 37875 ft | 500 kts | 289° |
| 2026-04-28 06:43 | -0.30898 | 72.70409 | 37876 ft | 500 kts | 289° |
| 2026-04-28 06:43 | -0.28581 | 72.63867 | 37875 ft | 500 kts | 289° |
| 2026-04-28 06:44 | -0.26261 | 72.57318 | 37874 ft | 500 kts | 289° |
| 2026-04-28 06:44 | -0.23940 | 72.50766 | 37872 ft | 500 kts | 289° |
| 2026-04-28 06:45 | -0.21640 | 72.44274 | 37874 ft | 501 kts | 289° |
| 2026-04-28 06:45 | -0.19311 | 72.37700 | 37876 ft | 501 kts | 289° |
| 2026-04-28 06:46 | -0.16983 | 72.31128 | 37871 ft | 502 kts | 289° |
| 2026-04-28 06:46 | -0.14650 | 72.24543 | 37868 ft | 502 kts | 289° |
| 2026-04-28 06:47 | -0.12321 | 72.17969 | 37873 ft | 502 kts | 289° |
| 2026-04-28 06:47 | -0.09991 | 72.11391 | 37875 ft | 502 kts | 289° |
| 2026-04-28 06:48 | -0.07659 | 72.04811 | 37872 ft | 502 kts | 289° |
| 2026-04-28 06:48 | -0.05329 | 71.98234 | 37873 ft | 502 kts | 289° |
| 2026-04-28 06:49 | -0.02998 | 71.91656 | 37876 ft | 502 kts | 289° |
| 2026-04-28 06:49 | -0.00669 | 71.85080 | 37873 ft | 502 kts | 289° |
| 2026-04-28 06:50 | 0.01643 | 71.78554 | 37874 ft | 502 kts | 289° |
| 2026-04-28 06:50 | 0.03973 | 71.71978 | 37873 ft | 501 kts | 289° |
| 2026-04-28 06:51 | 0.06299 | 71.65412 | 37875 ft | 501 kts | 289° |
| 2026-04-28 06:51 | 0.08625 | 71.58846 | 37872 ft | 501 kts | 289° |
| 2026-04-28 06:52 | 0.10951 | 71.52280 | 37876 ft | 501 kts | 289° |
| 2026-04-28 06:52 | 0.13274 | 71.45722 | 37873 ft | 501 kts | 289° |
| 2026-04-28 06:53 | 0.15597 | 71.39165 | 37870 ft | 500 kts | 289° |
| 2026-04-28 06:53 | 0.17918 | 71.32615 | 37872 ft | 500 kts | 289° |
| 2026-04-28 06:54 | 0.20223 | 71.26110 | 37871 ft | 499 kts | 289° |
| 2026-04-28 06:54 | 0.22537 | 71.19576 | 37867 ft | 499 kts | 289° |
| 2026-04-28 06:55 | 0.24855 | 71.13032 | 37867 ft | 499 kts | 289° |
| 2026-04-28 06:55 | 0.27171 | 71.06492 | 37872 ft | 499 kts | 289° |
| 2026-04-28 06:56 | 0.29486 | 70.99958 | 37871 ft | 499 kts | 289° |
| 2026-04-28 06:56 | 0.31796 | 70.93435 | 37875 ft | 499 kts | 289° |
| 2026-04-28 06:57 | 0.34109 | 70.86904 | 37869 ft | 499 kts | 289° |
| 2026-04-28 06:57 | 0.36427 | 70.80361 | 37865 ft | 499 kts | 289° |
| 2026-04-28 06:58 | 0.38738 | 70.73837 | 37873 ft | 499 kts | 289° |
| 2026-04-28 06:58 | 0.41040 | 70.67337 | 37868 ft | 499 kts | 289° |
| 2026-04-28 06:59 | 0.43354 | 70.60803 | 37873 ft | 499 kts | 289° |
| 2026-04-28 06:59 | 0.45670 | 70.54264 | 37870 ft | 498 kts | 289° |
| 2026-04-28 07:00 | 0.47981 | 70.47740 | 37873 ft | 498 kts | 289° |
| 2026-04-28 07:00 | 0.50295 | 70.41203 | 37871 ft | 499 kts | 289° |
| 2026-04-28 07:01 | 0.52609 | 70.34669 | 37873 ft | 499 kts | 289° |
| 2026-04-28 07:01 | 0.54921 | 70.28140 | 37871 ft | 499 kts | 289° |
| 2026-04-28 07:02 | 0.57235 | 70.21607 | 37872 ft | 499 kts | 289° |
| 2026-04-28 07:02 | 0.59552 | 70.15062 | 37867 ft | 499 kts | 289° |
| 2026-04-28 07:03 | 0.61867 | 70.08524 | 37872 ft | 499 kts | 289° |
| 2026-04-28 07:03 | 0.64188 | 70.01968 | 37871 ft | 500 kts | 289° |
| 2026-04-28 07:04 | 0.66504 | 69.95427 | 37874 ft | 500 kts | 289° |
| 2026-04-28 07:04 | 0.68822 | 69.88881 | 37869 ft | 499 kts | 289° |
| 2026-04-28 07:05 | 0.71138 | 69.82340 | 37870 ft | 499 kts | 289° |
| 2026-04-28 07:05 | 0.73451 | 69.75805 | 37876 ft | 499 kts | 289° |
| 2026-04-28 07:06 | 0.75762 | 69.69275 | 37876 ft | 499 kts | 288° |
| 2026-04-28 07:06 | 0.78060 | 69.62779 | 37878 ft | 499 kts | 288° |
| 2026-04-28 07:07 | 0.80371 | 69.56251 | 37874 ft | 499 kts | 288° |
| 2026-04-28 07:07 | 0.82685 | 69.49715 | 37875 ft | 499 kts | 288° |
| 2026-04-28 07:08 | 0.84997 | 69.43180 | 37879 ft | 499 kts | 288° |
| 2026-04-28 07:08 | 0.87307 | 69.36652 | 37879 ft | 499 kts | 288° |
| 2026-04-28 07:09 | 0.89618 | 69.30120 | 37872 ft | 499 kts | 288° |
| 2026-04-28 07:09 | 0.91931 | 69.23583 | 37876 ft | 499 kts | 289° |
| 2026-04-28 07:10 | 0.94248 | 69.17033 | 37875 ft | 500 kts | 289° |
| 2026-04-28 07:10 | 0.96572 | 69.10463 | 37875 ft | 502 kts | 289° |
| 2026-04-28 07:11 | 0.98902 | 69.03878 | 37872 ft | 503 kts | 289° |
| 2026-04-28 07:11 | 1.01221 | 68.97323 | 37873 ft | 504 kts | 289° |
| 2026-04-28 07:12 | 1.03559 | 68.90714 | 37876 ft | 505 kts | 289° |
| 2026-04-28 07:12 | 1.05898 | 68.84101 | 37873 ft | 505 kts | 289° |
| 2026-04-28 07:13 | 1.08236 | 68.77490 | 37879 ft | 505 kts | 289° |
| 2026-04-28 07:13 | 1.10574 | 68.70879 | 37881 ft | 505 kts | 289° |
| 2026-04-28 07:14 | 1.12914 | 68.64263 | 37882 ft | 504 kts | 289° |
| 2026-04-28 07:14 | 1.15249 | 68.57657 | 37875 ft | 504 kts | 289° |
| 2026-04-28 07:15 | 1.17586 | 68.51047 | 37881 ft | 504 kts | 289° |
| 2026-04-28 07:15 | 1.19906 | 68.44484 | 37875 ft | 505 kts | 289° |
| 2026-04-28 07:16 | 1.22244 | 68.37871 | 37877 ft | 505 kts | 289° |
| 2026-04-28 07:16 | 1.24582 | 68.31259 | 37865 ft | 505 kts | 289° |
| 2026-04-28 07:17 | 1.26922 | 68.24637 | 37878 ft | 505 kts | 289° |
| 2026-04-28 07:17 | 1.29262 | 68.18014 | 37882 ft | 506 kts | 289° |
| 2026-04-28 07:18 | 1.31607 | 68.11378 | 37864 ft | 506 kts | 289° |
| 2026-04-28 07:18 | 1.33948 | 68.04751 | 37885 ft | 505 kts | 289° |
| 2026-04-28 07:19 | 1.36288 | 67.98128 | 37883 ft | 505 kts | 289° |
| 2026-04-28 07:19 | 1.38611 | 67.91551 | 37862 ft | 505 kts | 289° |
| 2026-04-28 07:20 | 1.40949 | 67.84931 | 37880 ft | 505 kts | 289° |
| 2026-04-28 07:20 | 1.43285 | 67.78318 | 37880 ft | 504 kts | 289° |
| 2026-04-28 07:21 | 1.45620 | 67.71704 | 37869 ft | 505 kts | 289° |
| 2026-04-28 07:21 | 1.47958 | 67.65085 | 37880 ft | 505 kts | 289° |
| 2026-04-28 07:22 | 1.51464 | 67.55156 | 37875 ft | 505 kts | 289° |
| 2026-04-28 07:22 | 1.53802 | 67.48531 | 37879 ft | 506 kts | 289° |
| 2026-04-28 07:23 | 1.56143 | 67.41898 | 37877 ft | 506 kts | 289° |
| 2026-04-28 07:23 | 1.58469 | 67.35309 | 37869 ft | 506 kts | 289° |
| 2026-04-28 07:24 | 1.60809 | 67.28676 | 37882 ft | 506 kts | 289° |
| 2026-04-28 07:24 | 1.63150 | 67.22043 | 37886 ft | 506 kts | 289° |
| 2026-04-28 07:25 | 1.68926 | 67.05674 | 37868 ft | 506 kts | 289° |
| 2026-04-28 07:25 | 1.78277 | 66.79154 | 37864 ft | 506 kts | 289° |
| 2026-04-28 07:26 | 1.87632 | 66.52612 | 37870 ft | 506 kts | 289° |
| 2026-04-28 07:26 | 1.96981 | 66.26071 | 37870 ft | 506 kts | 288° |
| 2026-04-28 07:27 | 2.06319 | 65.99549 | 37874 ft | 507 kts | 289° |
| 2026-04-28 07:27 | 2.15673 | 65.72967 | 37876 ft | 508 kts | 289° |
| 2026-04-28 07:28 | 2.25085 | 65.46203 | 37872 ft | 510 kts | 289° |
| 2026-04-28 07:28 | 2.34499 | 65.19417 | 37874 ft | 510 kts | 289° |
| 2026-04-28 07:29 | 2.43904 | 64.92637 | 37878 ft | 511 kts | 289° |
| 2026-04-28 07:29 | 2.53271 | 64.65944 | 37874 ft | 512 kts | 289° |
| 2026-04-28 07:30 | 2.62703 | 64.39050 | 37876 ft | 512 kts | 289° |
| 2026-04-28 07:30 | 2.72128 | 64.12152 | 37877 ft | 512 kts | 289° |
| 2026-04-28 07:31 | 2.81523 | 63.85319 | 37880 ft | 511 kts | 289° |
| 2026-04-28 07:31 | 2.90923 | 63.58449 | 37877 ft | 512 kts | 289° |
| 2026-04-28 07:32 | 3.00306 | 63.31614 | 37875 ft | 513 kts | 288° |
| 2026-04-28 07:32 | 3.02944 | 63.24045 | 37878 ft | 515 kts | 288° |
| 2026-04-28 07:33 | 3.05322 | 63.17240 | 37875 ft | 514 kts | 288° |
| 2026-04-28 07:33 | 3.07680 | 63.10491 | 37878 ft | 514 kts | 288° |
| 2026-04-28 07:34 | 3.09639 | 63.04883 | 37877 ft | 514 kts | 288° |
| 2026-04-28 07:34 | 3.11996 | 62.98130 | 37881 ft | 514 kts | 288° |
| 2026-04-28 07:35 | 3.14349 | 62.91386 | 37877 ft | 514 kts | 288° |
| 2026-04-28 07:35 | 3.16710 | 62.84620 | 37879 ft | 514 kts | 288° |
| 2026-04-28 07:36 | 3.19065 | 62.77868 | 37879 ft | 514 kts | 288° |
| 2026-04-28 07:36 | 3.21807 | 62.70004 | 37879 ft | 515 kts | 288° |
| 2026-04-28 07:37 | 3.23782 | 62.64339 | 37879 ft | 515 kts | 288° |
| 2026-04-28 07:37 | 3.26135 | 62.57589 | 37881 ft | 515 kts | 288° |
| 2026-04-28 07:38 | 3.28482 | 62.50855 | 37883 ft | 515 kts | 288° |
| 2026-04-28 07:38 | 3.30842 | 62.44081 | 37880 ft | 515 kts | 288° |
| 2026-04-28 07:39 | 3.33201 | 62.37309 | 37884 ft | 515 kts | 288° |
| 2026-04-28 07:39 | 3.35554 | 62.30550 | 37883 ft | 515 kts | 288° |
| 2026-04-28 07:40 | 3.37911 | 62.23782 | 37881 ft | 515 kts | 288° |
| 2026-04-28 07:40 | 3.40264 | 62.17020 | 37883 ft | 515 kts | 288° |
| 2026-04-28 07:41 | 3.42608 | 62.10284 | 37884 ft | 514 kts | 287° |
| 2026-04-28 07:41 | 3.44954 | 62.03541 | 37884 ft | 514 kts | 287° |
| 2026-04-28 07:42 | 3.47305 | 61.96779 | 37884 ft | 514 kts | 287° |
| 2026-04-28 07:42 | 3.49653 | 61.90028 | 37884 ft | 514 kts | 287° |
| 2026-04-28 07:43 | 3.52000 | 61.83272 | 37887 ft | 513 kts | 287° |
| 2026-04-28 07:43 | 3.54347 | 61.76519 | 37887 ft | 513 kts | 287° |
| 2026-04-28 07:44 | 3.56688 | 61.69782 | 37884 ft | 513 kts | 288° |
| 2026-04-28 07:44 | 3.59034 | 61.63027 | 37883 ft | 513 kts | 288° |
| 2026-04-28 07:45 | 3.61375 | 61.56284 | 37882 ft | 513 kts | 288° |
| 2026-04-28 07:45 | 3.63713 | 61.49551 | 37885 ft | 512 kts | 288° |
| 2026-04-28 07:46 | 3.66046 | 61.42828 | 37884 ft | 512 kts | 288° |
| 2026-04-28 07:46 | 3.68385 | 61.36090 | 37892 ft | 511 kts | 288° |
| 2026-04-28 07:47 | 3.69629 | 61.32751 | 38036 ft | 513 kts | 292° |
| 2026-04-28 07:47 | 3.71219 | 61.29556 | 38327 ft | 511 kts | 297° |
| 2026-04-28 07:47 | 3.72903 | 61.26427 | 38572 ft | 511 kts | 297° |
| 2026-04-28 07:47 | 3.74598 | 61.23356 | 38769 ft | 510 kts | 298° |
| 2026-04-28 07:48 | 3.76327 | 61.20258 | 38959 ft | 509 kts | 298° |
| 2026-04-28 07:48 | 3.78056 | 61.17171 | 39138 ft | 509 kts | 298° |
| 2026-04-28 07:48 | 3.79814 | 61.14029 | 39308 ft | 509 kts | 298° |
| 2026-04-28 07:48 | 3.81517 | 61.10978 | 39452 ft | 509 kts | 298° |
| 2026-04-28 07:49 | 3.83241 | 61.07882 | 39642 ft | 509 kts | 298° |
| 2026-04-28 07:49 | 3.84960 | 61.04791 | 39791 ft | 508 kts | 298° |
| 2026-04-28 07:49 | 3.86677 | 61.01700 | 39898 ft | 509 kts | 298° |
| 2026-04-28 07:49 | 3.88400 | 60.98596 | 39889 ft | 509 kts | 298° |
| 2026-04-28 07:50 | 3.91846 | 60.92390 | 39890 ft | 509 kts | 298° |
| 2026-04-28 07:50 | 3.95277 | 60.86211 | 39890 ft | 508 kts | 298° |
| 2026-04-28 07:51 | 3.98717 | 60.80014 | 39876 ft | 508 kts | 298° |
| 2026-04-28 07:51 | 4.02141 | 60.73844 | 39871 ft | 508 kts | 298° |
| 2026-04-28 07:52 | 4.05579 | 60.67649 | 39896 ft | 507 kts | 298° |
| 2026-04-28 07:52 | 4.09002 | 60.61479 | 39895 ft | 507 kts | 298° |
| 2026-04-28 07:53 | 4.12431 | 60.55297 | 39887 ft | 507 kts | 298° |
| 2026-04-28 07:53 | 4.15847 | 60.49136 | 39879 ft | 507 kts | 298° |
| 2026-04-28 07:54 | 4.19275 | 60.42952 | 39875 ft | 507 kts | 298° |
| 2026-04-28 07:54 | 4.22698 | 60.36776 | 39894 ft | 506 kts | 298° |
| 2026-04-28 07:55 | 4.26091 | 60.30654 | 39881 ft | 506 kts | 298° |
| 2026-04-28 07:55 | 4.29504 | 60.24492 | 39879 ft | 506 kts | 298° |
| 2026-04-28 07:56 | 4.32925 | 60.18317 | 39889 ft | 506 kts | 298° |
| 2026-04-28 07:56 | 4.36337 | 60.12154 | 39893 ft | 506 kts | 298° |
| 2026-04-28 07:57 | 4.39750 | 60.05990 | 39884 ft | 506 kts | 298° |
| 2026-04-28 07:57 | 4.43155 | 59.99838 | 39884 ft | 506 kts | 298° |
| 2026-04-28 07:58 | 4.46563 | 59.93679 | 39884 ft | 506 kts | 298° |
| 2026-04-28 07:58 | 4.49972 | 59.87515 | 39884 ft | 505 kts | 298° |
| 2026-04-28 07:59 | 4.53381 | 59.81352 | 39885 ft | 505 kts | 298° |
| 2026-04-28 07:59 | 4.56790 | 59.75188 | 39883 ft | 505 kts | 297° |
| 2026-04-28 08:00 | 4.60199 | 59.69020 | 39885 ft | 506 kts | 297° |
| 2026-04-28 08:00 | 4.63583 | 59.62897 | 39882 ft | 506 kts | 297° |
| 2026-04-28 08:01 | 4.66996 | 59.56720 | 39881 ft | 507 kts | 297° |
| 2026-04-28 08:01 | 4.70410 | 59.50540 | 39900 ft | 507 kts | 297° |
| 2026-04-28 08:02 | 4.73830 | 59.44347 | 39885 ft | 507 kts | 297° |
| 2026-04-28 08:02 | 4.77241 | 59.38169 | 39884 ft | 507 kts | 297° |
| 2026-04-28 08:03 | 4.80655 | 59.31984 | 39884 ft | 507 kts | 297° |
| 2026-04-28 08:03 | 4.84070 | 59.25796 | 39885 ft | 507 kts | 297° |
| 2026-04-28 08:04 | 4.87460 | 59.19650 | 39885 ft | 506 kts | 297° |
| 2026-04-28 08:04 | 4.90870 | 59.13468 | 39885 ft | 506 kts | 297° |
| 2026-04-28 08:05 | 4.94274 | 59.07294 | 39882 ft | 506 kts | 297° |
| 2026-04-28 08:05 | 4.97677 | 59.01120 | 39882 ft | 506 kts | 297° |
| 2026-04-28 08:06 | 5.01085 | 58.94937 | 39880 ft | 506 kts | 297° |
| 2026-04-28 08:06 | 5.04489 | 58.88758 | 39884 ft | 506 kts | 297° |
| 2026-04-28 08:07 | 5.07893 | 58.82576 | 39881 ft | 506 kts | 297° |
| 2026-04-28 08:07 | 5.11296 | 58.76396 | 39882 ft | 506 kts | 297° |
| 2026-04-28 08:08 | 5.14698 | 58.70216 | 39880 ft | 506 kts | 297° |
| 2026-04-28 08:08 | 5.18080 | 58.64071 | 39881 ft | 506 kts | 297° |
| 2026-04-28 08:09 | 5.21480 | 58.57889 | 39881 ft | 506 kts | 297° |
| 2026-04-28 08:09 | 5.24878 | 58.51711 | 39881 ft | 506 kts | 297° |
| 2026-04-28 08:10 | 5.28306 | 58.45477 | 39879 ft | 507 kts | 297° |
| 2026-04-28 08:10 | 5.32775 | 58.37346 | 39881 ft | 507 kts | 297° |
| 2026-04-28 08:11 | 5.39538 | 58.25036 | 39882 ft | 507 kts | 297° |
| 2026-04-28 08:11 | 5.46399 | 58.12541 | 39879 ft | 507 kts | 297° |
| 2026-04-28 08:12 | 5.53144 | 58.00248 | 39881 ft | 506 kts | 297° |
| 2026-04-28 08:12 | 5.59925 | 57.87883 | 39880 ft | 506 kts | 297° |
| 2026-04-28 08:13 | 5.66723 | 57.75478 | 39879 ft | 506 kts | 297° |
| 2026-04-28 08:13 | 5.73502 | 57.63101 | 39884 ft | 506 kts | 297° |
| 2026-04-28 08:14 | 5.80274 | 57.50728 | 39880 ft | 505 kts | 297° |
| 2026-04-28 08:14 | 5.87042 | 57.38357 | 39880 ft | 505 kts | 297° |
| 2026-04-28 08:15 | 5.93805 | 57.25985 | 39880 ft | 506 kts | 297° |
| 2026-04-28 08:15 | 6.00584 | 57.13577 | 39879 ft | 506 kts | 297° |
| 2026-04-28 08:16 | 6.07346 | 57.01191 | 39882 ft | 506 kts | 297° |
| 2026-04-28 08:16 | 6.14108 | 56.88796 | 39882 ft | 506 kts | 297° |
| 2026-04-28 08:17 | 6.22294 | 56.73781 | 39880 ft | 506 kts | 297° |
| 2026-04-28 08:17 | 6.35809 | 56.48964 | 39880 ft | 507 kts | 297° |
| 2026-04-28 08:18 | 6.47491 | 56.23293 | 39878 ft | 505 kts | 287° |
| 2026-04-28 08:18 | 6.56615 | 55.96567 | 39880 ft | 504 kts | 287° |
| 2026-04-28 08:19 | 6.65717 | 55.69990 | 39879 ft | 502 kts | 287° |
| 2026-04-28 08:19 | 6.74771 | 55.43498 | 39879 ft | 499 kts | 286° |
| 2026-04-28 08:20 | 6.83767 | 55.17117 | 39877 ft | 500 kts | 286° |
| 2026-04-28 08:20 | 6.92715 | 54.90828 | 39879 ft | 499 kts | 286° |
| 2026-04-28 08:21 | 7.01701 | 54.64378 | 39876 ft | 498 kts | 286° |
| 2026-04-28 08:21 | 7.10630 | 54.38040 | 39875 ft | 497 kts | 286° |
| 2026-04-28 08:22 | 7.19536 | 54.11714 | 39874 ft | 496 kts | 286° |
| 2026-04-28 08:22 | 7.23210 | 54.00566 | 39837 ft | 490 kts | 275° |
| 2026-04-28 08:22 | 7.23840 | 53.97183 | 39821 ft | 493 kts | 279° |
| 2026-04-28 08:23 | 7.25640 | 53.90495 | 39696 ft | 497 kts | 285° |
| 2026-04-28 08:23 | 7.26900 | 53.87246 | 39819 ft | 497 kts | 290° |
| 2026-04-28 08:23 | 7.28297 | 53.84043 | 39874 ft | 499 kts | 291° |
| 2026-04-28 08:24 | 7.30944 | 53.77607 | 39874 ft | 497 kts | 288° |
| 2026-04-28 08:24 | 7.33293 | 53.71063 | 39877 ft | 496 kts | 286° |
| 2026-04-28 08:25 | 7.35502 | 53.64482 | 39875 ft | 496 kts | 285° |
| 2026-04-28 08:26 | 7.38795 | 53.54607 | 39879 ft | 495 kts | 285° |
| 2026-04-28 08:26 | 7.40625 | 53.49156 | 39877 ft | 495 kts | 285° |
| 2026-04-28 08:27 | 7.42839 | 53.42571 | 39877 ft | 495 kts | 285° |
| 2026-04-28 08:27 | 7.45367 | 53.35051 | 39879 ft | 495 kts | 285° |
| 2026-04-28 08:28 | 7.49772 | 53.21932 | 39879 ft | 495 kts | 285° |
| 2026-04-28 08:28 | 7.54179 | 53.08791 | 39879 ft | 494 kts | 285° |
| 2026-04-28 08:29 | 7.58574 | 52.95669 | 39876 ft | 494 kts | 285° |
| 2026-04-28 08:29 | 7.62976 | 52.82514 | 39875 ft | 494 kts | 285° |
| 2026-04-28 08:30 | 7.67338 | 52.69465 | 39876 ft | 495 kts | 285° |
| 2026-04-28 08:30 | 7.71734 | 52.56297 | 39875 ft | 495 kts | 285° |
| 2026-04-28 08:31 | 7.76123 | 52.43137 | 39876 ft | 496 kts | 286° |
| 2026-04-28 08:31 | 7.80510 | 52.29969 | 39876 ft | 496 kts | 286° |
| 2026-04-28 08:32 | 7.84897 | 52.16784 | 39877 ft | 495 kts | 286° |
| 2026-04-28 08:32 | 7.89274 | 52.03616 | 39877 ft | 494 kts | 286° |
| 2026-04-28 08:33 | 7.95945 | 51.83514 | 39878 ft | 493 kts | 287° |
| 2026-04-28 08:33 | 8.04618 | 51.57327 | 39877 ft | 492 kts | 287° |
| 2026-04-28 08:34 | 8.13254 | 51.31189 | 39876 ft | 491 kts | 288° |
| 2026-04-28 08:34 | 8.21861 | 51.05060 | 39876 ft | 490 kts | 288° |
| 2026-04-28 08:35 | 8.28880 | 50.78454 | 39877 ft | 491 kts | 285° |
| 2026-04-28 08:35 | 8.36000 | 50.51816 | 39878 ft | 492 kts | 285° |
| 2026-04-28 08:36 | 8.43123 | 50.25060 | 39882 ft | 493 kts | 286° |
| 2026-04-28 08:36 | 8.50195 | 49.98417 | 39889 ft | 494 kts | 286° |
| 2026-04-28 08:37 | 8.57344 | 49.71405 | 39890 ft | 495 kts | 286° |
| 2026-04-28 08:37 | 8.64407 | 49.44638 | 39897 ft | 496 kts | 286° |
| 2026-04-28 08:38 | 8.68213 | 49.28773 | 39786 ft | 492 kts | 281° |
| 2026-04-28 08:38 | 8.69420 | 49.23717 | 39936 ft | 494 kts | 288° |
| 2026-04-28 08:38 | 8.71446 | 49.17054 | 39900 ft | 496 kts | 288° |
| 2026-04-28 08:39 | 8.75200 | 49.03667 | 39905 ft | 496 kts | 286° |
| 2026-04-28 08:39 | 8.78714 | 48.90189 | 39906 ft | 496 kts | 286° |
| 2026-04-28 08:40 | 8.82243 | 48.76682 | 39902 ft | 496 kts | 285° |
| 2026-04-28 08:40 | 8.85771 | 48.63182 | 39907 ft | 497 kts | 285° |
| 2026-04-28 08:41 | 8.89299 | 48.49660 | 39924 ft | 496 kts | 285° |
| 2026-04-28 08:41 | 8.92797 | 48.36228 | 39911 ft | 497 kts | 285° |
| 2026-04-28 08:42 | 8.96328 | 48.22648 | 39913 ft | 496 kts | 285° |
| 2026-04-28 08:42 | 8.99838 | 48.09127 | 39915 ft | 496 kts | 285° |
| 2026-04-28 08:43 | 9.03336 | 47.95633 | 39920 ft | 496 kts | 285° |
| 2026-04-28 08:43 | 9.06805 | 47.82223 | 39915 ft | 496 kts | 285° |
| 2026-04-28 08:44 | 9.10300 | 47.68696 | 39916 ft | 496 kts | 285° |
| 2026-04-28 08:44 | 9.13774 | 47.55229 | 39912 ft | 496 kts | 285° |
| 2026-04-28 08:45 | 9.17253 | 47.41716 | 39913 ft | 496 kts | 285° |
| 2026-04-28 08:45 | 9.19706 | 47.27986 | 39915 ft | 497 kts | 277° |
| 2026-04-28 08:46 | 9.21167 | 47.14079 | 39917 ft | 497 kts | 276° |
| 2026-04-28 08:46 | 9.22626 | 47.00242 | 39915 ft | 498 kts | 276° |
| 2026-04-28 08:47 | 9.24111 | 46.86212 | 39914 ft | 498 kts | 276° |
| 2026-04-28 08:47 | 9.25571 | 46.72349 | 39913 ft | 499 kts | 276° |
| 2026-04-28 08:48 | 9.27045 | 46.58296 | 39918 ft | 499 kts | 276° |
| 2026-04-28 08:48 | 9.28496 | 46.44419 | 39915 ft | 499 kts | 276° |
| 2026-04-28 08:49 | 9.29953 | 46.30425 | 39913 ft | 499 kts | 276° |
| 2026-04-28 08:49 | 9.31403 | 46.16459 | 39912 ft | 499 kts | 276° |
| 2026-04-28 08:50 | 9.32844 | 46.02505 | 39916 ft | 499 kts | 276° |
| 2026-04-28 08:50 | 9.34286 | 45.88505 | 39917 ft | 499 kts | 276° |
| 2026-04-28 08:51 | 9.35721 | 45.74514 | 39920 ft | 499 kts | 276° |
| 2026-04-28 08:51 | 9.37133 | 45.60684 | 39926 ft | 499 kts | 277° |
| 2026-04-28 08:52 | 9.38551 | 45.46751 | 39931 ft | 499 kts | 277° |
| 2026-04-28 08:52 | 9.39968 | 45.32766 | 39934 ft | 500 kts | 277° |
| 2026-04-28 08:53 | 9.41382 | 45.18764 | 39933 ft | 500 kts | 277° |
| 2026-04-28 08:53 | 9.42795 | 45.04719 | 39933 ft | 501 kts | 277° |
| 2026-04-28 08:54 | 9.44200 | 44.90683 | 39933 ft | 501 kts | 277° |
| 2026-04-28 08:54 | 9.46756 | 44.65017 | 39933 ft | 503 kts | 277° |
| 2026-04-28 08:55 | 9.49543 | 44.36816 | 39928 ft | 503 kts | 277° |
| 2026-04-28 08:55 | 9.52310 | 44.08581 | 39930 ft | 503 kts | 277° |
| 2026-04-28 08:56 | 9.53468 | 43.80451 | 39936 ft | 504 kts | 274° |
| 2026-04-28 08:56 | 9.54643 | 43.52050 | 39948 ft | 503 kts | 274° |
| 2026-04-28 08:56 | 9.54771 | 43.37917 | 39953 ft | 504 kts | 263° |
| 2026-04-28 08:57 | 9.52842 | 43.23741 | 39963 ft | 504 kts | 263° |
| 2026-04-28 08:57 | 9.49045 | 42.95769 | 39977 ft | 504 kts | 263° |
| 2026-04-28 08:58 | 9.45190 | 42.67513 | 39981 ft | 504 kts | 263° |
| 2026-04-28 08:58 | 9.41327 | 42.39360 | 39984 ft | 504 kts | 263° |
| 2026-04-28 08:59 | 9.37445 | 42.11240 | 39994 ft | 505 kts | 263° |
| 2026-04-28 08:59 | 9.34558 | 41.90438 | 40010 ft | 505 kts | 263° |
| 2026-04-28 09:00 | 9.32006 | 41.72123 | 40028 ft | 505 kts | 262° |
| 2026-04-28 09:00 | 9.30764 | 41.66148 | 39928 ft | 501 kts | 251° |
| 2026-04-28 09:00 | 9.29485 | 41.59923 | 40036 ft | 503 kts | 268° |
| 2026-04-28 09:01 | 9.28234 | 41.45774 | 40001 ft | 506 kts | 263° |
| 2026-04-28 09:01 | 9.26339 | 41.31752 | 40008 ft | 506 kts | 262° |
| 2026-04-28 09:02 | 9.24354 | 41.17622 | 39986 ft | 506 kts | 262° |
| 2026-04-28 09:02 | 9.22362 | 41.03527 | 39979 ft | 507 kts | 262° |
| 2026-04-28 09:03 | 9.20354 | 40.89369 | 39986 ft | 507 kts | 262° |
| 2026-04-28 09:03 | 9.18344 | 40.75235 | 39980 ft | 507 kts | 262° |
| 2026-04-28 09:04 | 9.16330 | 40.61112 | 39949 ft | 507 kts | 262° |
| 2026-04-28 09:04 | 9.14311 | 40.46989 | 39950 ft | 507 kts | 262° |
| 2026-04-28 09:05 | 9.12743 | 40.36057 | 39838 ft | 507 kts | 262° |
| 2026-04-28 09:05 | 9.12246 | 40.32592 | 39604 ft | 502 kts | 262° |
| 2026-04-28 09:05 | 9.11747 | 40.29123 | 39295 ft | 495 kts | 262° |
| 2026-04-28 09:05 | 9.11249 | 40.25662 | 38666 ft | 497 kts | 262° |
| 2026-04-28 09:06 | 9.10751 | 40.22197 | 37944 ft | 499 kts | 262° |
| 2026-04-28 09:06 | 9.10250 | 40.18713 | 37280 ft | 500 kts | 262° |
| 2026-04-28 09:06 | 9.09749 | 40.15235 | 36627 ft | 500 kts | 262° |
| 2026-04-28 09:06 | 9.09248 | 40.11755 | 35956 ft | 501 kts | 262° |
| 2026-04-28 09:07 | 9.08744 | 40.08260 | 35277 ft | 502 kts | 262° |
| 2026-04-28 09:07 | 9.08238 | 40.04754 | 34507 ft | 505 kts | 262° |
| 2026-04-28 09:07 | 9.07730 | 40.01240 | 33882 ft | 505 kts | 262° |
| 2026-04-28 09:07 | 9.07224 | 39.97741 | 33310 ft | 501 kts | 262° |
| 2026-04-28 09:08 | 9.06722 | 39.94269 | 32771 ft | 497 kts | 262° |
| 2026-04-28 09:08 | 9.06222 | 39.90812 | 32227 ft | 494 kts | 262° |
| 2026-04-28 09:08 | 9.05726 | 39.87387 | 31692 ft | 491 kts | 262° |
| 2026-04-28 09:08 | 9.05231 | 39.83970 | 31159 ft | 489 kts | 262° |
| 2026-04-28 09:09 | 9.04740 | 39.80587 | 30635 ft | 487 kts | 262° |
| 2026-04-28 09:09 | 9.04250 | 39.77207 | 30119 ft | 484 kts | 262° |
| 2026-04-28 09:09 | 9.03759 | 39.73831 | 29540 ft | 482 kts | 262° |
| 2026-04-28 09:09 | 9.03281 | 39.70541 | 29016 ft | 479 kts | 261° |
| 2026-04-28 09:10 | 9.02797 | 39.67212 | 28499 ft | 475 kts | 261° |
| 2026-04-28 09:10 | 9.02318 | 39.63920 | 27985 ft | 472 kts | 261° |
| 2026-04-28 09:10 | 9.01843 | 39.60655 | 27482 ft | 468 kts | 261° |
| 2026-04-28 09:10 | 9.01368 | 39.57400 | 26968 ft | 465 kts | 261° |
| 2026-04-28 09:11 | 9.00899 | 39.54176 | 26454 ft | 462 kts | 261° |
| 2026-04-28 09:11 | 9.00430 | 39.50963 | 25953 ft | 459 kts | 261° |
| 2026-04-28 09:11 | 8.99972 | 39.47786 | 25477 ft | 456 kts | 261° |
| 2026-04-28 09:11 | 8.99579 | 39.44614 | 24994 ft | 453 kts | 262° |
| 2026-04-28 09:12 | 8.99206 | 39.41450 | 24486 ft | 451 kts | 262° |
| 2026-04-28 09:12 | 8.98832 | 39.38322 | 23981 ft | 449 kts | 262° |
| 2026-04-28 09:12 | 8.98450 | 39.35179 | 23437 ft | 447 kts | 262° |
| 2026-04-28 09:12 | 8.98071 | 39.32073 | 22869 ft | 444 kts | 262° |
| 2026-04-28 09:13 | 8.97692 | 39.28983 | 22335 ft | 440 kts | 262° |
| 2026-04-28 09:13 | 8.97318 | 39.25935 | 21829 ft | 436 kts | 262° |
| 2026-04-28 09:13 | 8.96949 | 39.22921 | 21313 ft | 432 kts | 262° |
| 2026-04-28 09:13 | 8.96639 | 39.19928 | 20809 ft | 428 kts | 264° |
| 2026-04-28 09:14 | 8.96359 | 39.16932 | 20298 ft | 424 kts | 264° |
| 2026-04-28 09:15 | 8.96267 | 39.15951 | 20133 ft | 423 kts | 264° |
| 2026-04-28 09:15 | 8.95983 | 39.12990 | 19619 ft | 420 kts | 264° |
| 2026-04-28 09:15 | 8.95700 | 39.10068 | 19116 ft | 417 kts | 263° |
| 2026-04-28 09:15 | 8.95415 | 39.07155 | 18728 ft | 415 kts | 263° |
| 2026-04-28 09:16 | 8.95129 | 39.04262 | 18219 ft | 412 kts | 264° |
| 2026-04-28 09:16 | 8.94844 | 39.01385 | 17718 ft | 408 kts | 264° |
| 2026-04-28 09:16 | 8.94562 | 38.98546 | 17253 ft | 404 kts | 264° |
| 2026-04-28 09:16 | 8.94283 | 38.95735 | 16791 ft | 399 kts | 264° |
| 2026-04-28 09:17 | 8.93860 | 38.92984 | 16336 ft | 394 kts | 254° |
| 2026-04-28 09:17 | 8.92769 | 38.90469 | 15876 ft | 389 kts | 240° |
| 2026-04-28 09:17 | 8.91416 | 38.88154 | 15302 ft | 388 kts | 238° |
| 2026-04-28 09:17 | 8.90000 | 38.85774 | 14646 ft | 390 kts | 239° |
| 2026-04-28 09:18 | 8.88621 | 38.83433 | 14276 ft | 383 kts | 239° |
| 2026-04-28 09:18 | 8.87304 | 38.81186 | 14139 ft | 369 kts | 239° |
| 2026-04-28 09:18 | 8.86023 | 38.78995 | 13969 ft | 356 kts | 239° |
| 2026-04-28 09:18 | 8.84786 | 38.76876 | 13796 ft | 343 kts | 239° |
| 2026-04-28 09:19 | 8.83592 | 38.74828 | 13612 ft | 331 kts | 239° |
| 2026-04-28 09:19 | 8.82440 | 38.72853 | 13452 ft | 320 kts | 239° |
| 2026-04-28 09:19 | 8.81329 | 38.70951 | 13260 ft | 311 kts | 239° |
| 2026-04-28 09:19 | 8.80245 | 38.69092 | 13046 ft | 302 kts | 239° |
| 2026-04-28 09:20 | 8.79240 | 38.67258 | 12844 ft | 295 kts | 246° |
| 2026-04-28 09:20 | 8.78879 | 38.65279 | 12443 ft | 283 kts | 275° |
| 2026-04-28 09:20 | 8.79464 | 38.63423 | 11975 ft | 274 kts | 297° |
| 2026-04-28 09:20 | 8.80440 | 38.61786 | 11698 ft | 275 kts | 311° |
| 2026-04-28 09:21 | 8.81389 | 38.60937 | 11528 ft | 273 kts | 330° |
| 2026-04-28 09:21 | 8.83153 | 38.60387 | 11306 ft | 265 kts | 360° |
| 2026-04-28 09:21 | 8.85527 | 38.60681 | 11135 ft | 252 kts | 12° |
| 2026-04-28 09:21 | 8.86645 | 38.60963 | 11047 ft | 246 kts | 20° |
| 2026-04-28 09:22 | 8.88114 | 38.61767 | 10992 ft | 235 kts | 37° |
| 2026-04-28 09:22 | 8.89359 | 38.62762 | 10916 ft | 223 kts | 41° |
| 2026-04-28 09:22 | 8.90531 | 38.63712 | 10818 ft | 211 kts | 38° |
| 2026-04-28 09:22 | 8.91709 | 38.64554 | 10649 ft | 205 kts | 36° |
| 2026-04-28 09:23 | 8.92831 | 38.65408 | 10441 ft | 198 kts | 43° |
| 2026-04-28 09:23 | 8.93519 | 38.66548 | 10222 ft | 184 kts | 71° |
| 2026-04-28 09:23 | 8.93908 | 38.67747 | 9912 ft | 176 kts | 75° |
| 2026-04-28 09:23 | 8.94242 | 38.68906 | 9628 ft | 169 kts | 75° |
| 2026-04-28 09:24 | 8.94587 | 38.70026 | 9368 ft | 165 kts | 74° |
| 2026-04-28 09:24 | 8.94931 | 38.71120 | 9143 ft | 162 kts | 73° |
| 2026-04-28 09:24 | 8.95281 | 38.72201 | 8886 ft | 160 kts | 73° |
| 2026-04-28 09:24 | 8.95655 | 38.73251 | 8612 ft | 158 kts | 71° |
| 2026-04-28 09:25 | 8.95979 | 38.74293 | 8390 ft | 158 kts | 71° |
| 2026-04-28 09:25 | 8.96318 | 38.75330 | 8146 ft | 161 kts | 76° |
| 2026-04-28 09:25 | 8.96657 | 38.76424 | 7932 ft | 163 kts | 75° |
| 2026-04-28 09:25 | 8.96996 | 38.77528 | 7794 ft | 163 kts | 76° |
| 2026-04-28 09:26 | 8.97322 | 38.78625 | 7675 ft | 164 kts | 77° |
| 2026-04-28 09:26 | 8.97600 | 38.79642 | 7622 ft | 151 kts | 75° |
| 2026-04-28 09:26 | 8.97854 | 38.80486 | 7624 ft | 102 kts | 73° |
| 2026-04-28 09:26 | 8.98001 | 38.80986 | 7620 ft | 48 kts | 73° |
| 2026-04-28 09:27 | 8.98154 | 38.81254 | 7620 ft | 17 kts | 39° |
| 2026-04-28 09:27 | 8.98225 | 38.81314 | 7620 ft | 11 kts | 40° |
| 2026-04-28 09:27 | 8.98286 | 38.81329 | 7620 ft | 5 kts | 324° |
| 2026-04-28 09:28 | 8.98290 | 38.81304 | 7620 ft | 4 kts | 271° |
| 2026-04-28 09:28 | 8.98279 | 38.81251 | 7623 ft | 11 kts | 255° |
| 2026-04-28 09:28 | 8.98256 | 38.81170 | 7620 ft | 12 kts | 253° |
| 2026-04-28 09:28 | 8.98233 | 38.81090 | 7621 ft | 12 kts | 254° |
| 2026-04-28 09:29 | 8.98210 | 38.81010 | 7621 ft | 12 kts | 254° |
| 2026-04-28 09:29 | 8.98186 | 38.80925 | 7621 ft | 13 kts | 254° |
| 2026-04-28 09:29 | 8.98160 | 38.80834 | 7620 ft | 14 kts | 253° |
| 2026-04-28 09:29 | 8.98133 | 38.80741 | 7621 ft | 14 kts | 253° |
| 2026-04-28 09:30 | 8.98104 | 38.80651 | 7622 ft | 14 kts | 252° |
| 2026-04-28 09:30 | 8.98073 | 38.80556 | 7623 ft | 14 kts | 252° |
| 2026-04-28 09:30 | 8.98042 | 38.80460 | 7623 ft | 14 kts | 255° |
| 2026-04-28 09:30 | 8.98018 | 38.80369 | 7625 ft | 13 kts | 254° |
| 2026-04-28 09:31 | 8.97996 | 38.80287 | 7626 ft | 13 kts | 254° |
| 2026-04-28 09:31 | 8.97976 | 38.80215 | 7625 ft | 10 kts | 257° |
| 2026-04-28 09:31 | 8.98007 | 38.80171 | 7625 ft | 9 kts | 337° |
| 2026-04-28 09:31 | 8.98093 | 38.80147 | 7624 ft | 15 kts | 344° |
| 2026-04-28 09:32 | 8.98194 | 38.80119 | 7624 ft | 15 kts | 345° |
| 2026-04-28 09:32 | 8.98265 | 38.80086 | 7624 ft | 8 kts | 303° |
| 2026-04-28 09:32 | 8.98261 | 38.80032 | 7624 ft | 8 kts | 251° |
| 2026-04-28 09:32 | 8.98244 | 38.79979 | 7624 ft | 8 kts | 251° |
| 2026-04-28 09:33 | 8.98227 | 38.79923 | 7624 ft | 8 kts | 254° |
| 2026-04-28 09:33 | 8.98211 | 38.79866 | 7624 ft | 9 kts | 254° |
| 2026-04-28 09:33 | 8.98194 | 38.79805 | 7624 ft | 9 kts | 255° |
| 2026-04-28 09:33 | 8.98177 | 38.79741 | 7624 ft | 10 kts | 255° |
| 2026-04-28 09:34 | 8.98179 | 38.79700 | 7624 ft | 4 kts | 304° |
| 2026-04-28 09:34 | 8.98204 | 38.79680 | 7624 ft | 5 kts | 324° |
| 2026-04-28 09:34 | 8.98235 | 38.79671 | 7624 ft | 3 kts | 345° |
| 2026-04-28 09:34 | 8.98237 | 38.79670 | 7624 ft | 0 kts | 344° |